Time;durP1;ratioP1;P1;durP2;ratioP2;P2;SDS_P1;SDS_P2;PMS_P1;PMS_P2;Temp;Humidity;BMP_temperature;BMP_pressure;BME280_temperature;BME280_humidity;BME280_pressure;Samples;Min_cycle;Max_cycle;Signal;HPM_P1;HPM_P2
2023/08/16 00:00:14;;;;;;;12.70;8.30;;;;;;;26.12;56.85;99573.84;5090288;28;20024;-44
2023/08/16 00:02:39;;;;;;;12.10;7.93;;;;;;;26.02;57.43;99571.38;5090189;28;20111;-44
2023/08/16 00:05:06;;;;;;;13.25;8.05;;;;;;;26.09;57.40;99571.75;5090159;28;20524;-44
2023/08/16 00:07:34;;;;;;;15.07;8.48;;;;;;;26.19;57.00;99578.06;5090005;28;20162;-44
2023/08/16 00:10:00;;;;;;;11.52;8.50;;;;;;;26.15;57.29;99572.41;5090044;28;20074;-46
2023/08/16 00:12:25;;;;;;;13.55;8.75;;;;;;;26.10;57.23;99567.09;5089855;28;20487;-44
2023/08/16 00:14:51;;;;;;;12.38;8.13;;;;;;;26.14;57.15;99566.16;5089974;28;20025;-44
2023/08/16 00:17:16;;;;;;;13.63;7.68;;;;;;;26.12;57.47;99571.13;5090304;28;20071;-45
2023/08/16 00:19:42;;;;;;;11.60;8.23;;;;;;;26.16;57.23;99565.88;5090061;28;20103;-43
2023/08/16 00:22:08;;;;;;;17.80;8.65;;;;;;;26.20;57.16;99563.28;5090237;28;20020;-43
2023/08/16 00:24:33;;;;;;;11.10;8.30;;;;;;;26.14;57.13;99568.91;5093124;28;20117;-44
2023/08/16 00:26:59;;;;;;;10.45;8.55;;;;;;;26.14;57.24;99571.63;5094241;28;20035;-44
2023/08/16 00:29:24;;;;;;;16.33;8.90;;;;;;;26.12;57.44;99559.41;5094261;28;20051;-47
2023/08/16 00:31:50;;;;;;;11.15;8.20;;;;;;;26.14;57.15;99562.63;5094002;28;20031;-44
2023/08/16 00:34:15;;;;;;;11.60;8.45;;;;;;;25.85;57.77;99572.00;5093800;28;20345;-43
2023/08/16 00:36:41;;;;;;;12.98;8.75;;;;;;;25.85;58.31;99568.50;5094092;28;20089;-47
2023/08/16 00:39:06;;;;;;;12.07;8.65;;;;;;;25.90;58.17;99562.94;5094101;28;20052;-43
2023/08/16 00:41:32;;;;;;;13.88;8.40;;;;;;;25.87;58.22;99558.09;5093851;28;20400;-45
2023/08/16 00:43:57;;;;;;;11.43;7.63;;;;;;;25.84;58.09;99562.25;5093987;28;20020;-44
2023/08/16 00:46:23;;;;;;;12.80;8.45;;;;;;;25.93;58.15;99562.31;5093552;28;20024;-43
2023/08/16 00:48:49;;;;;;;12.02;8.40;;;;;;;25.93;57.90;99570.50;5093723;28;20452;-42
2023/08/16 00:51:15;;;;;;;11.57;8.07;;;;;;;25.95;57.67;99560.13;5093598;28;20102;-43
2023/08/16 00:53:42;;;;;;;13.45;8.15;;;;;;;25.99;57.45;99566.56;5093455;28;20108;-42
2023/08/16 00:56:07;;;;;;;13.82;8.20;;;;;;;26.04;57.45;99571.84;5093220;28;20100;-43
2023/08/16 00:58:33;;;;;;;11.38;8.05;;;;;;;26.01;57.15;99569.78;5093523;28;20028;-44
2023/08/16 01:00:59;;;;;;;11.60;8.57;;;;;;;26.02;57.17;99574.09;5093211;28;20054;-47
2023/08/16 01:03:25;;;;;;;11.05;7.85;;;;;;;26.06;57.14;99566.91;5093498;28;20337;-45
2023/08/16 01:05:50;;;;;;;11.50;8.43;;;;;;;26.07;57.33;99571.25;5093100;28;20345;-47
2023/08/16 01:08:16;;;;;;;11.20;8.18;;;;;;;26.01;57.29;99563.50;5093384;28;20020;-44
2023/08/16 01:10:58;;;;;;;10.73;7.80;;;;;;;25.99;57.73;99576.63;5093079;28;20036;-43
2023/08/16 01:13:34;;;;;;;11.98;8.38;;;;;;;25.99;57.61;99571.19;5093523;28;20024;-43
2023/08/16 01:16:07;;;;;;;9.40;7.90;;;;;;;26.04;57.72;99565.59;5093049;28;20016;-46
2023/08/16 01:18:34;;;;;;;10.27;8.07;;;;;;;26.05;57.55;99575.41;5093222;28;20043;-46
2023/08/16 01:21:00;;;;;;;10.05;8.00;;;;;;;25.75;58.17;99570.34;5093309;28;20024;-44
2023/08/16 01:23:43;;;;;;;10.82;7.45;;;;;;;25.96;58.04;99569.09;5092925;28;20511;-46
2023/08/16 01:26:11;;;;;;;9.73;7.32;;;;;;;26.09;57.51;99577.19;5092786;28;20024;-46
2023/08/16 01:28:39;;;;;;;11.90;8.18;;;;;;;26.13;57.54;99570.00;5093042;28;20034;-44
2023/08/16 01:31:05;;;;;;;11.90;7.57;;;;;;;26.12;57.33;99575.75;5093065;28;20052;-46
2023/08/16 01:33:30;;;;;;;9.90;7.72;;;;;;;26.16;57.46;99565.88;5092944;28;20503;-47
2023/08/16 01:35:56;;;;;;;9.55;7.05;;;;;;;26.23;56.97;99568.94;5092771;28;20115;-45
2023/08/16 01:38:22;;;;;;;9.52;6.97;;;;;;;26.26;56.55;99568.31;5092797;28;20364;-45
2023/08/16 01:41:18;;;;;;;12.30;7.53;;;;;;;26.44;56.38;99566.47;5092740;28;20452;-45
2023/08/16 01:43:46;;;;;;;10.30;7.88;;;;;;;26.43;56.17;99570.34;5091553;28;20032;-45
2023/08/16 01:46:14;;;;;;;15.63;6.90;;;;;;;26.31;56.30;99570.91;5092419;28;20107;-44
2023/08/16 01:48:40;;;;;;;9.70;7.50;;;;;;;26.25;56.63;99574.06;5092568;28;20020;-43
2023/08/16 01:51:06;;;;;;;9.10;7.25;;;;;;;26.31;56.68;99568.19;5092583;28;20020;-44
2023/08/16 01:53:34;;;;;;;8.93;7.20;;;;;;;26.39;56.69;99563.06;5092586;28;20032;-47
2023/08/16 01:55:59;;;;;;;9.98;7.55;;;;;;;26.41;56.24;99563.59;5092424;28;20073;-46
2023/08/16 01:58:25;;;;;;;8.70;7.63;;;;;;;26.12;56.99;99575.75;5092371;28;20023;-44
2023/08/16 02:00:50;;;;;;;9.85;7.43;;;;;;;25.97;57.59;99574.25;5092397;28;20035;-45
2023/08/16 02:03:16;;;;;;;10.35;7.60;;;;;;;26.06;57.36;99568.81;5092240;28;20024;-43
2023/08/16 02:05:41;;;;;;;8.45;7.20;;;;;;;25.88;57.45;99570.63;5092320;28;20405;-43
2023/08/16 02:08:07;;;;;;;9.02;7.43;;;;;;;26.07;56.99;99562.28;5091854;28;20020;-44
2023/08/16 02:10:32;;;;;;;10.90;7.18;;;;;;;25.60;58.59;99561.75;5092201;28;20019;-45
2023/08/16 02:12:58;;;;;;;8.75;7.25;;;;;;;25.66;58.29;99572.19;5092017;28;20077;-43
2023/08/16 02:15:25;;;;;;;10.18;7.30;;;;;;;25.62;58.64;99562.22;5091875;28;20024;-43
2023/08/16 02:17:50;;;;;;;12.85;8.23;;;;;;;25.75;58.29;99558.66;5092065;28;20024;-43
2023/08/16 02:20:16;;;;;;;10.05;8.40;;;;;;;25.78;57.91;99559.94;5091963;28;20024;-44
2023/08/16 02:22:41;;;;;;;11.30;8.43;;;;;;;25.86;57.91;99567.41;5091815;28;20326;-46
2023/08/16 02:25:07;;;;;;;13.25;8.50;;;;;;;25.91;57.58;99565.38;5091998;28;20408;-44
2023/08/16 02:27:33;;;;;;;12.50;8.27;;;;;;;25.77;57.90;99561.06;5091889;28;20436;-46
2023/08/16 02:29:58;;;;;;;10.82;8.55;;;;;;;25.89;57.51;99553.13;5073549;28;20024;-45
2023/08/16 02:32:24;;;;;;;9.98;8.40;;;;;;;26.14;56.78;99559.88;5091667;28;20035;-45
2023/08/16 02:34:49;;;;;;;13.52;8.85;;;;;;;26.07;57.24;99562.28;5091401;28;20031;-44
2023/08/16 02:37:15;;;;;;;10.30;8.73;;;;;;;25.86;57.76;99556.50;5091660;28;20032;-45
2023/08/16 02:39:40;;;;;;;11.93;8.40;;;;;;;25.87;57.79;99556.16;5091498;28;20110;-45
2023/08/16 02:42:05;;;;;;;10.43;8.60;;;;;;;25.79;57.91;99547.94;5091725;28;20012;-45
2023/08/16 02:44:31;;;;;;;11.15;8.75;;;;;;;25.82;57.98;99556.31;5091518;28;20047;-46
2023/08/16 02:46:56;;;;;;;11.75;8.43;;;;;;;25.93;57.73;99560.41;5090859;28;20103;-46
2023/08/16 02:49:22;;;;;;;13.20;9.23;;;;;;;25.63;58.47;99561.94;5091360;28;20022;-43
2023/08/16 02:51:47;;;;;;;12.15;9.07;;;;;;;25.89;57.80;99564.03;5091267;28;20367;-43
2023/08/16 02:54:14;;;;;;;12.48;9.05;;;;;;;26.05;57.45;99562.56;5091080;28;20472;-45
2023/08/16 02:56:39;;;;;;;10.82;8.82;;;;;;;26.06;57.46;99556.00;5091090;28;20543;-47
2023/08/16 02:59:04;;;;;;;13.13;9.48;;;;;;;26.04;57.64;99562.88;5091017;28;20111;-48
2023/08/16 03:01:30;;;;;;;11.20;8.85;;;;;;;25.93;57.63;99560.41;5091039;28;20020;-45
2023/08/16 03:03:55;;;;;;;10.73;9.50;;;;;;;25.93;57.70;99562.31;5091254;28;20089;-43
2023/08/16 03:06:21;;;;;;;12.55;9.05;;;;;;;26.17;57.06;99561.22;5090902;28;20388;-43
2023/08/16 03:08:46;;;;;;;11.25;8.88;;;;;;;26.30;56.68;99552.13;5091059;28;20029;-44
2023/08/16 03:11:12;;;;;;;12.32;9.00;;;;;;;26.14;57.00;99560.72;5090831;28;20031;-42
2023/08/16 03:13:37;;;;;;;14.55;9.55;;;;;;;26.16;57.29;99560.41;5091050;28;20031;-42
2023/08/16 03:16:03;;;;;;;11.32;8.70;;;;;;;26.24;57.02;99556.13;5090813;28;20020;-43
2023/08/16 03:18:28;;;;;;;11.45;8.60;;;;;;;26.41;56.37;99553.47;5091290;28;20036;-44
2023/08/16 03:20:54;;;;;;;11.65;8.48;;;;;;;26.51;56.02;99553.19;5090763;28;20612;-46
2023/08/16 03:23:19;;;;;;;10.32;8.90;;;;;;;26.53;56.10;99552.88;5090749;28;20028;-42
2023/08/16 03:25:45;;;;;;;16.08;8.65;;;;;;;26.59;55.77;99550.81;5090655;28;20099;-42
2023/08/16 03:28:10;;;;;;;11.60;9.27;;;;;;;26.63;55.70;99546.38;5090823;28;20467;-46
2023/08/16 03:30:35;;;;;;;12.43;8.85;;;;;;;26.29;56.79;99553.25;5090332;28;20016;-45
2023/08/16 03:33:01;;;;;;;14.48;8.45;;;;;;;26.29;56.69;99555.97;5090382;28;20511;-43
2023/08/16 03:35:26;;;;;;;14.57;8.73;;;;;;;26.16;57.25;99545.94;5090554;28;20032;-44
2023/08/16 03:37:52;;;;;;;12.93;8.75;;;;;;;26.22;57.04;99548.25;5090271;28;20385;-44
2023/08/16 03:40:17;;;;;;;10.52;8.10;;;;;;;26.07;56.97;99521.38;5090265;28;20031;-42
2023/08/16 03:42:43;;;;;;;36.33;24.83;;;;;;;26.02;57.58;99546.03;5090313;28;20028;-43
2023/08/16 03:45:08;;;;;;;24.35;17.98;;;;;;;25.97;57.96;99551.59;5090406;28;20492;-42
2023/08/16 03:47:34;;;;;;;14.30;9.25;;;;;;;25.82;58.26;99550.06;5089942;28;20028;-43
2023/08/16 03:49:59;;;;;;;12.30;8.75;;;;;;;25.69;58.77;99560.69;5090233;28;20024;-45
2023/08/16 03:52:28;;;;;;;11.35;9.00;;;;;;;25.83;58.55;99559.81;5090162;28;20114;-45
2023/08/16 03:54:54;;;;;;;12.90;9.98;;;;;;;25.81;58.64;99553.88;5090353;28;20039;-46
2023/08/16 03:57:21;;;;;;;12.38;8.90;;;;;;;25.62;59.10;99554.84;5089875;28;20032;-42
2023/08/16 03:59:46;;;;;;;12.40;8.85;;;;;;;25.51;59.89;99562.47;5089741;28;20052;-44
2023/08/16 04:02:12;;;;;;;11.98;8.43;;;;;;;25.51;59.72;99567.94;5090268;28;20078;-43
2023/08/16 04:04:37;;;;;;;12.65;8.10;;;;;;;25.66;58.91;99569.47;5090424;28;20108;-44
2023/08/16 04:07:03;;;;;;;14.80;8.25;;;;;;;25.68;59.16;99564.53;5090482;28;20036;-43
2023/08/16 04:09:28;;;;;;;10.13;8.30;;;;;;;25.40;60.13;99565.72;5090620;28;20020;-43
2023/08/16 04:11:54;;;;;;;9.48;8.00;;;;;;;25.73;59.15;99567.13;5090614;28;20020;-42
2023/08/16 04:14:19;;;;;;;13.20;8.82;;;;;;;25.53;59.87;99568.41;5090640;28;20020;-43
2023/08/16 04:16:45;;;;;;;11.00;8.70;;;;;;;25.34;60.58;99568.56;5090064;28;20511;-42
2023/08/16 04:19:10;;;;;;;12.80;8.73;;;;;;;25.63;59.79;99566.56;5090078;28;20020;-42
2023/08/16 04:21:38;;;;;;;13.10;8.98;;;;;;;25.84;58.99;99564.19;5090225;28;20027;-42
2023/08/16 04:24:04;;;;;;;13.90;8.80;;;;;;;25.91;58.74;99564.53;5090393;28;20043;-44
2023/08/16 04:26:29;;;;;;;14.60;9.52;;;;;;;25.57;59.62;99560.44;5090647;28;20469;-45
2023/08/16 04:28:54;;;;;;;12.40;8.88;;;;;;;25.72;59.75;99565.53;5090177;28;20024;-41
2023/08/16 04:31:20;;;;;;;12.32;8.50;;;;;;;25.89;59.06;99566.75;5090154;28;20080;-44
2023/08/16 04:33:45;;;;;;;11.68;8.05;;;;;;;25.66;59.81;99565.94;5090094;28;20418;-44
2023/08/16 04:36:11;;;;;;;11.55;8.07;;;;;;;25.54;60.08;99567.28;5090069;28;20028;-42
2023/08/16 04:38:36;;;;;;;10.70;7.80;;;;;;;25.72;59.75;99568.25;5090068;28;20052;-42
2023/08/16 04:41:02;;;;;;;10.75;8.20;;;;;;;25.46;60.55;99573.47;5090218;28;20137;-42
2023/08/16 04:43:27;;;;;;;12.05;7.90;;;;;;;25.51;60.12;99573.38;5090011;28;20027;-41
2023/08/16 04:45:53;;;;;;;11.07;8.07;;;;;;;25.73;59.78;99586.19;5090135;28;20016;-42
2023/08/16 04:48:18;;;;;;;10.77;8.10;;;;;;;25.95;59.12;99584.66;5089822;28;20137;-42
2023/08/16 04:50:44;;;;;;;28.23;19.80;;;;;;;25.98;59.05;99580.50;5090137;28;20020;-44
2023/08/16 04:53:09;;;;;;;14.82;12.30;;;;;;;26.18;58.47;99579.16;5090004;28;20552;-42
2023/08/16 04:55:35;;;;;;;12.98;9.43;;;;;;;26.39;57.94;99579.44;5089978;28;20444;-43
2023/08/16 04:58:00;;;;;;;10.98;7.95;;;;;;;26.19;58.62;99586.25;5089789;28;20444;-43
2023/08/16 05:00:25;;;;;;;10.02;7.80;;;;;;;26.33;58.22;99581.50;5089862;28;20024;-43
2023/08/16 05:02:51;;;;;;;10.65;7.90;;;;;;;26.23;58.36;99588.03;5089913;28;20019;-42
2023/08/16 05:05:16;;;;;;;13.40;8.00;;;;;;;26.32;58.28;99588.88;5089726;28;20016;-43
2023/08/16 05:07:42;;;;;;;12.52;7.50;;;;;;;26.55;57.52;99585.31;5089629;28;20027;-44
2023/08/16 05:10:07;;;;;;;16.73;11.45;;;;;;;26.48;57.99;99585.75;5092055;28;20396;-42
2023/08/16 05:12:33;;;;;;;14.88;12.02;;;;;;;26.42;57.80;99585.06;5093301;28;20499;-44
2023/08/16 05:14:58;;;;;;;12.60;8.70;;;;;;;26.20;58.61;99591.38;5093370;28;20039;-44
2023/08/16 05:17:23;;;;;;;15.05;8.10;;;;;;;26.43;58.05;99589.44;5093412;28;20024;-43
2023/08/16 05:19:49;;;;;;;10.65;7.97;;;;;;;26.56;57.73;99592.38;5093406;28;20024;-43
2023/08/16 05:22:14;;;;;;;11.95;8.65;;;;;;;26.78;56.99;99592.34;5093344;28;20082;-44
2023/08/16 05:24:40;;;;;;;12.95;9.30;;;;;;;26.78;57.16;99586.88;5093007;28;20103;-44
2023/08/16 05:27:11;;;;;;;12.35;7.63;;;;;;;26.71;57.19;99592.81;5093092;28;20019;-45
2023/08/16 05:29:37;;;;;;;14.50;8.38;;;;;;;26.87;57.08;99595.09;5093237;28;20122;-43
2023/08/16 05:32:03;;;;;;;14.88;8.38;;;;;;;26.80;57.15;99595.56;5092937;28;20028;-41
2023/08/16 05:34:28;;;;;;;12.80;8.32;;;;;;;27.00;56.67;99586.00;5093333;28;20012;-42
2023/08/16 05:36:54;;;;;;;10.13;7.72;;;;;;;27.07;56.56;99588.25;5075055;28;20416;-48
2023/08/16 05:39:19;;;;;;;13.13;8.15;;;;;;;26.88;57.24;99591.25;5093099;28;20059;-47
2023/08/16 05:41:44;;;;;;;10.68;8.20;;;;;;;26.99;56.84;99584.38;5092920;28;20173;-44
2023/08/16 05:44:10;;;;;;;12.95;7.90;;;;;;;27.04;56.65;99591.63;5093014;28;20468;-42
2023/08/16 05:46:35;;;;;;;14.48;8.30;;;;;;;27.18;56.35;99592.28;5093123;28;20016;-42
2023/08/16 05:49:01;;;;;;;14.65;7.85;;;;;;;27.36;55.76;99590.44;5093307;28;20523;-43
2023/08/16 05:51:26;;;;;;;11.88;6.95;;;;;;;27.57;55.13;99590.63;5093216;28;20016;-43
2023/08/16 05:53:52;;;;;;;10.48;7.72;;;;;;;27.38;55.50;99595.56;5093257;28;20553;-42
2023/08/16 05:56:18;;;;;;;14.40;8.55;;;;;;;27.54;55.25;99593.19;5092528;28;20468;-42
2023/08/16 05:58:44;;;;;;;11.10;8.50;;;;;;;27.69;54.79;99598.19;5092966;28;20020;-43
2023/08/16 06:01:09;;;;;;;12.93;9.15;;;;;;;27.85;54.40;99598.47;5092919;28;20213;-43
2023/08/16 06:03:34;;;;;;;13.15;8.25;;;;;;;27.88;54.10;99601.41;5093132;28;20467;-43
2023/08/16 06:06:00;;;;;;;9.75;8.05;;;;;;;27.83;54.22;99601.53;5093064;28;20023;-41
2023/08/16 06:08:25;;;;;;;12.90;9.02;;;;;;;27.63;54.84;99602.19;5092612;28;20495;-43
2023/08/16 06:10:51;;;;;;;14.38;8.20;;;;;;;27.76;54.79;99597.69;5093105;28;20502;-43
2023/08/16 06:13:16;;;;;;;12.88;7.53;;;;;;;27.60;55.05;99600.91;5093039;28;20020;-44
2023/08/16 06:15:41;;;;;;;10.32;8.20;;;;;;;27.68;54.91;99599.28;5092290;28;20024;-44
2023/08/16 06:18:07;;;;;;;13.63;8.00;;;;;;;27.88;54.54;99595.94;5092291;28;20071;-42
2023/08/16 06:20:32;;;;;;;12.35;7.80;;;;;;;28.06;53.97;99602.22;5091885;28;20059;-41
2023/08/16 06:22:58;;;;;;;12.77;7.53;;;;;;;28.23;53.57;99600.56;5092357;28;20106;-42
2023/08/16 06:25:23;;;;;;;9.85;7.20;;;;;;;28.38;53.58;99604.72;5092388;28;20012;-42
2023/08/16 06:27:49;;;;;;;11.90;7.47;;;;;;;28.63;52.79;99597.56;5091970;28;20031;-44
2023/08/16 06:30:14;;;;;;;15.18;7.28;;;;;;;28.90;51.95;99592.78;5091841;28;20031;-42
2023/08/16 06:32:40;;;;;;;15.00;7.18;;;;;;;29.11;51.65;99590.94;5092337;28;20028;-43
2023/08/16 06:35:08;;;;;;;14.00;7.50;;;;;;;29.34;51.03;99587.88;5092284;28;20139;-44
2023/08/16 06:37:34;;;;;;;16.20;7.50;;;;;;;29.42;50.46;99584.31;5091924;28;20059;-42
2023/08/16 06:39:59;;;;;;;12.35;7.00;;;;;;;29.54;50.36;99581.63;5092166;28;20050;-43
2023/08/16 06:42:25;;;;;;;9.45;7.00;;;;;;;29.78;50.27;99580.97;5091515;28;20020;-43
2023/08/16 06:44:50;;;;;;;14.23;7.50;;;;;;;29.51;50.34;99586.97;5081654;28;20050;-43
2023/08/16 06:47:16;;;;;;;13.07;7.25;;;;;;;29.62;50.47;99580.75;5074377;28;20062;-43
2023/08/16 06:49:42;;;;;;;10.95;6.57;;;;;;;29.59;49.97;99588.84;5072302;28;20096;-41
2023/08/16 06:52:07;;;;;;;9.70;7.22;;;;;;;29.92;48.98;99586.16;5072349;28;20021;-43
2023/08/16 06:54:33;;;;;;;9.93;6.68;;;;;;;30.01;48.72;99586.88;5071610;28;20397;-45
2023/08/16 06:56:58;;;;;;;11.10;6.80;;;;;;;30.39;48.22;99590.56;5071684;28;20039;-43
2023/08/16 06:59:25;;;;;;;12.00;6.80;;;;;;;30.07;48.64;99592.16;5080467;28;20114;-42
2023/08/16 07:01:50;;;;;;;25.63;6.57;;;;;;;29.90;48.57;99584.91;5091459;28;20094;-44
2023/08/16 07:04:16;;;;;;;11.18;6.93;;;;;;;30.18;48.36;99585.13;5091453;28;20020;-43
2023/08/16 07:06:41;;;;;;;8.70;6.80;;;;;;;30.68;47.41;99578.59;5091305;28;20161;-43
2023/08/16 07:09:07;;;;;;;10.05;6.60;;;;;;;31.09;46.54;99590.53;5091331;28;20028;-41
2023/08/16 07:11:32;;;;;;;15.68;6.93;;;;;;;30.97;46.75;99574.03;5091362;28;20107;-44
2023/08/16 07:13:59;;;;;;;14.05;6.65;;;;;;;31.42;45.61;99586.00;5091237;28;20561;-43
2023/08/16 07:16:25;;;;;;;14.48;6.43;;;;;;;31.68;45.00;99580.91;5082954;28;20056;-43
2023/08/16 07:18:50;;;;;;;10.27;6.47;;;;;;;31.95;44.43;99582.03;5090941;28;20479;-43
2023/08/16 07:21:17;;;;;;;13.60;6.45;;;;;;;32.13;43.75;99579.00;5090339;28;20015;-43
2023/08/16 07:23:44;;;;;;;11.25;6.20;;;;;;;31.84;44.44;99585.66;5090413;28;20028;-43
2023/08/16 07:26:10;;;;;;;8.38;6.22;;;;;;;32.13;43.58;99579.78;5090386;28;20017;-44
2023/08/16 07:28:35;;;;;;;8.32;6.15;;;;;;;31.79;43.75;99586.69;5089257;28;20061;-44
2023/08/16 07:31:01;;;;;;;11.63;6.60;;;;;;;32.28;42.94;99578.22;5090398;28;20060;-43
2023/08/16 07:33:29;;;;;;;8.52;6.55;;;;;;;32.46;42.66;99586.13;5091431;28;20012;-43
2023/08/16 07:36:00;;;;;;;10.63;7.25;;;;;;;32.63;42.08;99585.81;5089584;28;20403;-44
2023/08/16 07:38:25;;;;;;;10.57;6.80;;;;;;;32.65;41.52;99579.94;5089851;28;20051;-43
2023/08/16 07:40:50;;;;;;;10.90;6.60;;;;;;;32.56;42.47;99582.03;5090830;28;20146;-43
2023/08/16 07:43:16;;;;;;;9.30;6.60;;;;;;;32.64;42.48;99586.63;5090935;28;20495;-44
2023/08/16 07:45:41;;;;;;;11.35;6.57;;;;;;;32.39;42.59;99580.47;5091149;28;20020;-47
2023/08/16 07:48:07;;;;;;;9.45;6.45;;;;;;;32.60;42.24;99577.47;5090529;28;20562;-43
2023/08/16 07:50:32;;;;;;;8.60;6.40;;;;;;;32.89;41.97;99578.97;5090190;28;20031;-44
2023/08/16 07:52:58;;;;;;;7.40;6.10;;;;;;;33.16;41.49;99584.72;5090472;28;20112;-43
2023/08/16 07:55:29;;;;;;;8.23;6.78;;;;;;;32.60;42.41;99581.03;5090484;28;20442;-43
2023/08/16 07:57:54;;;;;;;8.15;6.35;;;;;;;31.83;43.20;99579.34;5090718;28;20016;-43
2023/08/16 08:00:20;;;;;;;10.80;6.72;;;;;;;31.96;42.86;99580.88;5090234;28;20024;-44
2023/08/16 08:02:45;;;;;;;10.93;6.57;;;;;;;32.11;42.70;99579.34;5090429;28;20483;-45
2023/08/16 08:05:10;;;;;;;9.85;6.15;;;;;;;32.73;41.70;99584.50;5090196;28;20035;-45
2023/08/16 08:07:36;;;;;;;9.90;6.40;;;;;;;33.10;41.12;99581.41;5090534;28;20024;-45
2023/08/16 08:10:01;;;;;;;8.52;6.10;;;;;;;33.43;40.80;99582.94;5090285;28;20100;-43
2023/08/16 08:12:27;;;;;;;9.32;6.20;;;;;;;33.61;40.33;99584.13;5090017;28;20190;-43
2023/08/16 08:14:52;;;;;;;9.57;6.30;;;;;;;33.85;39.59;99582.22;5090106;28;20039;-43
2023/08/16 08:17:17;;;;;;;8.15;6.57;;;;;;;34.04;39.05;99586.94;5090194;28;20020;-44
2023/08/16 08:19:43;;;;;;;10.13;6.30;;;;;;;34.17;38.55;99588.38;5090128;28;20024;-45
2023/08/16 08:22:09;;;;;;;9.25;6.88;;;;;;;34.16;38.30;99573.00;5090045;28;20385;-46
2023/08/16 08:24:35;;;;;;;14.70;8.02;;;;;;;33.33;39.56;99542.94;5089911;28;20128;-45
2023/08/16 08:27:00;;;;;;;10.25;6.88;;;;;;;33.67;38.67;99579.91;5089936;28;20542;-44
2023/08/16 08:29:26;;;;;;;12.07;6.90;;;;;;;33.55;39.31;99574.53;5090298;28;20052;-46
2023/08/16 08:31:53;;;;;;;8.85;6.25;;;;;;;33.79;39.32;99578.97;5090363;28;20027;-43
2023/08/16 08:34:19;;;;;;;8.93;6.78;;;;;;;34.00;39.49;99581.34;5090242;28;20047;-45
2023/08/16 08:36:44;;;;;;;12.02;6.80;;;;;;;34.32;38.55;99583.13;5090081;28;20100;-48
2023/08/16 08:39:09;;;;;;;9.75;6.00;;;;;;;34.49;37.51;99577.13;5090178;28;20489;-44
2023/08/16 08:41:37;;;;;;;12.88;6.63;;;;;;;34.12;38.53;99576.81;5089903;28;20449;-44
2023/08/16 08:44:02;;;;;;;10.43;6.25;;;;;;;34.22;37.87;99579.03;5090731;28;20081;-44
2023/08/16 08:46:29;;;;;;;7.13;6.07;;;;;;;34.25;37.06;99581.84;5094251;28;20024;-46
2023/08/16 08:48:58;;;;;;;10.98;7.65;;;;;;;33.66;37.71;99581.09;5093828;28;20024;-45
2023/08/16 08:51:29;;;;;;;12.20;6.93;;;;;;;33.56;38.69;99575.31;5094492;28;20044;-44
2023/08/16 08:53:55;;;;;;;10.07;6.18;;;;;;;34.26;38.14;99569.63;5094287;28;20042;-43
2023/08/16 08:56:21;;;;;;;7.18;5.65;;;;;;;34.14;36.96;99563.44;5093481;28;20074;-42
2023/08/16 08:58:47;;;;;;;8.30;5.90;;;;;;;34.46;36.87;99569.56;5094264;28;20055;-43
2023/08/16 09:01:13;;;;;;;9.23;5.80;;;;;;;34.86;36.58;99568.25;5093801;28;20488;-45
2023/08/16 09:03:43;;;;;;;8.75;5.90;;;;;;;35.14;36.03;99569.84;5093698;28;20032;-43
2023/08/16 09:06:10;;;;;;;8.48;5.88;;;;;;;34.93;35.91;99565.59;5093972;28;20020;-44
2023/08/16 09:08:36;;;;;;;9.82;6.18;;;;;;;34.41;36.37;99576.19;5093824;28;20411;-42
2023/08/16 09:11:03;;;;;;;10.85;6.18;;;;;;;34.19;37.56;99563.19;5093905;28;20119;-45
2023/08/16 09:13:29;;;;;;;11.60;5.93;;;;;;;33.55;37.88;99571.78;5094147;28;20104;-43
2023/08/16 09:15:55;;;;;;;10.18;5.97;;;;;;;33.69;37.28;99572.09;5093863;28;20040;-43
2023/08/16 09:18:22;;;;;;;7.13;5.57;;;;;;;34.19;37.10;99560.41;5093608;28;20020;-44
2023/08/16 09:20:49;;;;;;;7.63;5.75;;;;;;;34.05;36.25;99563.69;5093651;28;20028;-44
2023/08/16 09:23:18;;;;;;;10.77;6.15;;;;;;;33.38;38.18;99564.72;5093187;28;20051;-44
2023/08/16 09:25:46;;;;;;;9.63;6.18;;;;;;;32.94;39.09;99559.41;5093459;28;20143;-43
2023/08/16 09:28:13;;;;;;;;;;;;;;;33.10;38.65;99564.88;5093728;28;20112;-46
2023/08/16 09:30:40;;;;;;;8.70;6.18;;;;;;;33.29;38.02;99564.13;5093434;28;19912;-45
2023/08/16 09:33:07;;;;;;;7.72;5.50;;;;;;;32.67;38.38;99569.38;5093260;28;20443;-45
2023/08/16 09:35:34;;;;;;;6.72;5.35;;;;;;;32.94;38.40;99567.66;5093167;28;20119;-45
2023/08/16 09:38:00;;;;;;;7.28;5.60;;;;;;;33.40;37.75;99567.91;5092631;28;20146;-43
2023/08/16 09:40:26;;;;;;;6.93;5.20;;;;;;;33.43;37.31;99567.19;5093108;28;20028;-47
2023/08/16 09:42:58;;;;;;;9.02;5.32;;;;;;;33.36;37.51;99567.06;5093206;28;20480;-44
2023/08/16 09:45:30;;;;;;;9.48;5.53;;;;;;;33.35;37.50;99559.91;5093332;28;20027;-44
2023/08/16 09:47:56;;;;;;;11.32;5.97;;;;;;;32.90;37.96;99575.03;5092993;28;20020;-43
2023/08/16 09:50:23;;;;;;;7.10;5.32;;;;;;;32.80;38.26;99572.84;5092983;28;20035;-43
2023/08/16 09:52:50;;;;;;;7.80;5.70;;;;;;;33.01;38.31;99580.78;5093029;28;20016;-44
2023/08/16 09:55:27;;;;;;;9.40;5.93;;;;;;;32.86;38.58;99571.41;5092398;28;20111;-44
2023/08/16 09:57:54;;;;;;;8.25;5.78;;;;;;;33.25;37.93;99575.06;5074045;28;20020;-45
2023/08/16 10:00:20;;;;;;;6.63;5.50;;;;;;;33.54;37.33;99569.38;5093048;28;20486;-43
2023/08/16 10:02:48;;;;;;;7.50;5.32;;;;;;;33.92;37.02;99571.34;5092711;28;20020;-46
2023/08/16 10:05:16;;;;;;;7.05;5.43;;;;;;;34.18;36.71;99567.91;5092740;28;20036;-42
2023/08/16 10:07:41;;;;;;;8.02;5.43;;;;;;;34.01;36.55;99565.59;5093163;28;20085;-45
2023/08/16 10:10:11;;;;;;;6.60;5.28;;;;;;;34.27;35.72;99565.72;5093014;28;20020;-46
2023/08/16 10:12:39;;;;;;;8.10;5.50;;;;;;;34.13;35.97;99561.88;5093028;28;20495;-42
2023/08/16 10:15:05;;;;;;;;;;;;;;;34.42;36.42;99560.41;5092835;28;20024;-43
2023/08/16 10:17:32;;;;;;;11.68;5.38;;;;;;;34.74;36.18;99562.94;5092519;28;19908;-44
2023/08/16 10:20:07;;;;;;;10.38;6.00;;;;;;;34.94;35.68;99569.97;5092400;28;20476;-43
2023/08/16 10:22:41;;;;;;;7.65;5.60;;;;;;;35.22;35.68;99577.09;5092158;28;20032;-45
2023/08/16 10:25:13;;;;;;;6.50;5.45;;;;;;;34.91;35.39;99567.94;5092531;28;20640;-45
2023/08/16 10:27:45;;;;;;;10.48;5.43;;;;;;;35.40;34.11;99564.31;5092346;28;20103;-48
2023/08/16 10:30:21;;;;;;;10.07;6.53;;;;;;;35.68;34.24;99565.03;5092485;28;20054;-44
2023/08/16 10:32:55;;;;;;;9.05;5.57;;;;;;;36.08;33.43;99561.53;5092535;28;20055;-43
2023/08/16 10:35:20;;;;;;;8.60;5.63;;;;;;;35.68;33.16;99567.81;5092168;28;20070;-45
2023/08/16 10:37:46;;;;;;;9.18;5.82;;;;;;;35.59;33.53;99565.31;5091736;28;20083;-44
2023/08/16 10:40:16;;;;;;;9.48;5.78;;;;;;;35.75;33.50;99562.38;5091908;28;20556;-44
2023/08/16 10:43:08;;;;;;;7.25;5.53;;;;;;;35.63;33.88;99555.88;5092045;28;20031;-43
2023/08/16 10:45:34;;;;;;;6.70;5.65;;;;;;;35.64;33.74;99553.91;5088300;28;20403;-44
2023/08/16 10:48:10;;;;;;;7.75;5.30;;;;;;;35.98;34.03;99551.13;5092019;28;20096;-44
2023/08/16 10:50:36;;;;;;;8.25;5.65;;;;;;;35.64;34.45;99542.84;5091733;28;20035;-43
2023/08/16 10:53:02;;;;;;;7.30;5.80;;;;;;;35.30;34.38;99540.09;5091720;28;20024;-45
2023/08/16 10:55:28;;;;;;;7.95;5.20;;;;;;;34.84;34.76;99545.72;5091661;28;20034;-44
2023/08/16 10:57:54;;;;;;;9.30;5.15;;;;;;;34.40;35.40;99541.44;5091867;28;20483;-43
2023/08/16 11:00:28;;;;;;;11.35;5.82;;;;;;;34.31;35.58;99543.69;5091551;28;20100;-44
2023/08/16 11:02:54;;;;;;;8.82;5.60;;;;;;;34.46;35.16;99528.13;5091439;28;20020;-43
2023/08/16 11:05:21;;;;;;;6.03;4.97;;;;;;;34.60;35.55;99533.09;5091551;28;20349;-44
2023/08/16 11:07:47;;;;;;;9.93;5.50;;;;;;;34.14;36.53;99528.38;5091102;28;20046;-43
2023/08/16 11:10:13;;;;;;;6.65;5.00;;;;;;;34.37;35.53;99522.09;5091340;28;20024;-43
2023/08/16 11:12:39;;;;;;;7.40;5.50;;;;;;;34.68;34.77;99534.84;5091132;28;20043;-44
2023/08/16 11:15:05;;;;;;;6.28;5.10;;;;;;;35.11;34.65;99532.69;5091034;28;20080;-42
2023/08/16 11:17:31;;;;;;;9.35;5.60;;;;;;;35.49;34.57;99527.25;5091694;28;20028;-44
2023/08/16 11:20:00;;;;;;;8.48;5.65;;;;;;;35.49;33.46;99525.31;5091081;28;20146;-42
2023/08/16 11:22:26;;;;;;;;;;;;;;;35.60;33.81;99525.41;5091562;28;20050;-44
2023/08/16 11:24:51;;;;;;;7.90;5.30;;;;;;;34.92;34.58;99511.50;5091220;28;20024;-43